Time;durP1;ratioP1;P1;durP2;ratioP2;P2;SDS_P1;SDS_P2;PMS_P1;PMS_P2;Temp;Humidity;BMP_temperature;BMP_pressure;BME280_temperature;BME280_humidity;BME280_pressure;Samples;Min_cycle;Max_cycle;Signal;HPM_P1;HPM_P2
2023/07/26 00:02:01;;;;;;;3.08;1.80;;;;;;;18.35;59.15;101249.53;5030841;28;20038;-45
2023/07/26 00:04:27;;;;;;;4.30;2.05;;;;;;;18.30;59.43;101240.78;5031280;28;20087;-45
2023/07/26 00:06:52;;;;;;;4.00;2.13;;;;;;;18.24;59.27;101245.22;5030783;28;20025;-42
2023/07/26 00:09:18;;;;;;;2.63;2.00;;;;;;;18.20;59.54;101243.53;5031172;28;20037;-43
2023/07/26 00:11:43;;;;;;;3.05;2.10;;;;;;;18.15;59.72;101242.72;5030531;28;20086;-50
2023/07/26 00:14:08;;;;;;;3.30;2.10;;;;;;;18.10;59.97;101235.75;5031022;28;20204;-44
2023/07/26 00:16:34;;;;;;;3.08;1.95;;;;;;;18.05;60.04;101235.78;5030455;28;20426;-44
2023/07/26 00:18:59;;;;;;;2.85;2.08;;;;;;;18.04;60.07;101234.06;5030888;28;20512;-46
2023/07/26 00:21:25;;;;;;;3.22;1.85;;;;;;;18.03;60.15;101240.22;5030469;28;20034;-43
2023/07/26 00:23:50;;;;;;;2.92;1.70;;;;;;;18.00;60.19;101231.44;5030304;28;20041;-46
2023/07/26 00:26:15;;;;;;;5.38;1.83;;;;;;;17.99;60.26;101235.00;5030987;28;20076;-44
2023/07/26 00:28:41;;;;;;;2.90;1.90;;;;;;;17.98;60.40;101230.63;5029200;28;20123;-44
2023/07/26 00:31:06;;;;;;;2.67;1.85;;;;;;;17.96;61.07;101227.09;5030307;28;20042;-43
2023/07/26 00:33:31;;;;;;;3.20;1.92;;;;;;;17.92;60.97;101223.66;5030460;28;20037;-54
2023/07/26 00:35:58;;;;;;;3.15;2.00;;;;;;;17.90;61.34;101221.91;5030685;28;20104;-46
2023/07/26 00:38:23;;;;;;;3.22;1.75;;;;;;;17.87;61.57;101229.88;5030686;28;20034;-47
2023/07/26 00:40:48;;;;;;;3.17;1.88;;;;;;;17.82;61.59;101228.13;5030781;28;20459;-43
2023/07/26 00:43:14;;;;;;;3.75;1.80;;;;;;;17.83;61.67;101231.66;5031861;28;20140;-43
2023/07/26 00:45:41;;;;;;;2.60;1.60;;;;;;;17.80;61.89;101221.16;5031599;28;20032;-43
2023/07/26 00:48:09;;;;;;;2.13;1.50;;;;;;;17.77;61.71;101231.72;5031206;28;20261;-43
2023/07/26 00:50:35;;;;;;;2.20;1.70;;;;;;;17.74;62.08;101231.75;5029616;28;20403;-45
2023/07/26 00:53:02;;;;;;;2.67;1.60;;;;;;;17.71;61.89;101227.38;5030630;28;20029;-44
2023/07/26 00:55:27;;;;;;;3.85;1.70;;;;;;;17.71;61.91;101226.50;5030753;28;20087;-45
2023/07/26 00:57:55;;;;;;;3.40;1.63;;;;;;;17.69;62.15;101225.63;5030513;28;20454;-45
2023/07/26 01:00:21;;;;;;;3.25;1.65;;;;;;;17.64;62.18;101223.03;5029779;28;20495;-43
2023/07/26 01:02:46;;;;;;;2.45;1.70;;;;;;;17.63;62.33;101223.94;5029994;28;20044;-42
2023/07/26 01:05:12;;;;;;;2.20;1.50;;;;;;;17.60;62.79;101220.44;5029442;28;20103;-46
2023/07/26 01:07:56;;;;;;;2.83;1.50;;;;;;;17.56;62.53;101227.50;5030121;28;20037;-43
2023/07/26 01:10:29;;;;;;;3.17;1.60;;;;;;;17.53;62.79;101226.66;5029927;28;20472;-45
2023/07/26 01:13:07;;;;;;;2.63;1.60;;;;;;;17.49;63.02;101228.44;5029542;28;20206;-48
2023/07/26 01:15:37;;;;;;;3.50;1.70;;;;;;;17.44;62.92;101228.47;5029439;28;20037;-46
2023/07/26 01:18:14;;;;;;;3.20;1.70;;;;;;;17.42;62.67;101225.00;5030080;28;20033;-48
2023/07/26 01:20:40;;;;;;;2.58;1.60;;;;;;;17.37;62.93;101226.81;5028967;28;20569;-43
2023/07/26 01:23:06;;;;;;;2.08;1.55;;;;;;;17.34;62.96;101221.53;5030318;28;20033;-44
2023/07/26 01:25:32;;;;;;;3.17;1.80;;;;;;;17.36;62.82;101214.50;5030529;28;20037;-43
2023/07/26 01:27:57;;;;;;;3.58;1.75;;;;;;;17.32;62.97;101215.41;5029931;28;20121;-50
2023/07/26 01:30:26;;;;;;;2.80;1.50;;;;;;;17.33;63.14;101221.53;5029311;28;20026;-43
2023/07/26 01:32:53;;;;;;;2.92;1.60;;;;;;;17.34;63.05;101218.91;5029642;28;20037;-43
2023/07/26 01:35:20;;;;;;;2.13;1.65;;;;;;;17.32;63.08;101215.41;5029968;28;20041;-44
2023/07/26 01:37:46;;;;;;;2.50;1.70;;;;;;;17.30;63.34;101214.56;5029264;28;20065;-48
2023/07/26 01:40:13;;;;;;;2.20;1.58;;;;;;;17.29;63.31;101210.16;5029589;28;20037;-45
2023/07/26 01:42:40;;;;;;;3.63;1.77;;;;;;;17.30;63.32;101205.78;5028925;28;20033;-45
2023/07/26 01:45:07;;;;;;;3.50;1.90;;;;;;;17.22;63.40;101218.13;5029644;28;20144;-46
2023/07/26 01:47:32;;;;;;;2.65;1.70;;;;;;;17.23;63.42;101211.97;5029394;28;20045;-45
2023/07/26 01:49:57;;;;;;;3.15;1.60;;;;;;;17.21;63.44;101211.13;5029554;28;20030;-45
2023/07/26 01:52:23;;;;;;;2.97;1.60;;;;;;;17.21;63.43;101209.34;5029081;28;20412;-44
2023/07/26 01:54:49;;;;;;;2.55;1.50;;;;;;;17.20;63.68;101210.22;5028929;28;20037;-45
2023/07/26 01:57:14;;;;;;;3.05;1.60;;;;;;;17.20;63.75;101206.75;5029582;28;20184;-44
2023/07/26 01:59:39;;;;;;;2.53;1.65;;;;;;;17.16;63.91;101208.53;5029080;28;20034;-48
2023/07/26 02:02:05;;;;;;;3.05;1.83;;;;;;;17.15;63.95;101211.16;5028820;28;20330;-47
2023/07/26 02:04:30;;;;;;;3.20;1.67;;;;;;;17.11;63.96;101205.06;5029862;28;20535;-45
2023/07/26 02:06:55;;;;;;;2.28;1.80;;;;;;;17.09;63.93;101208.56;5029841;28;20454;-44
2023/07/26 02:09:21;;;;;;;4.63;2.08;;;;;;;17.04;63.82;101211.25;5029923;28;20059;-45
2023/07/26 02:11:46;;;;;;;3.50;1.90;;;;;;;17.03;63.98;101217.41;5029072;28;20498;-42
2023/07/26 02:14:11;;;;;;;2.33;1.63;;;;;;;17.03;64.41;101209.50;5029653;28;20072;-45
2023/07/26 02:16:36;;;;;;;2.55;1.70;;;;;;;17.04;64.14;101212.13;5030082;28;20597;-46
2023/07/26 02:19:02;;;;;;;2.50;1.70;;;;;;;17.02;63.82;101219.16;5034106;28;20467;-43
2023/07/26 02:21:27;;;;;;;2.35;1.70;;;;;;;17.01;64.00;101204.28;5033820;28;20560;-44
2023/07/26 02:23:53;;;;;;;3.30;1.70;;;;;;;17.01;64.23;101219.19;5032877;28;20040;-42
2023/07/26 02:26:18;;;;;;;2.95;1.80;;;;;;;16.98;64.20;101212.19;5033462;28;20124;-44
2023/07/26 02:28:43;;;;;;;2.58;1.70;;;;;;;16.97;63.80;101209.53;5032695;28;20046;-44
2023/07/26 02:31:09;;;;;;;3.38;1.70;;;;;;;16.97;64.10;101217.44;5032371;28;20431;-44
2023/07/26 02:33:34;;;;;;;2.45;1.70;;;;;;;16.97;64.17;101217.44;5032608;28;20041;-44
2023/07/26 02:35:59;;;;;;;2.60;1.77;;;;;;;16.98;64.20;101212.19;5032934;28;20042;-42
2023/07/26 02:38:25;;;;;;;4.70;1.83;;;;;;;16.99;64.12;101213.94;5032958;28;20038;-43
2023/07/26 02:40:51;;;;;;;3.08;1.70;;;;;;;17.03;64.17;101212.13;5032742;28;20049;-46
2023/07/26 02:43:16;;;;;;;2.95;1.63;;;;;;;17.09;64.22;101208.56;5033641;28;20038;-45
2023/07/26 02:45:42;;;;;;;3.47;1.85;;;;;;;17.17;64.02;101201.50;5032258;28;20040;-45
2023/07/26 02:48:08;;;;;;;2.83;1.95;;;;;;;17.17;64.60;101199.75;5031919;28;20396;-44
2023/07/26 02:50:33;;;;;;;4.80;1.98;;;;;;;17.16;64.56;101203.25;5031835;28;20037;-44
2023/07/26 02:52:59;;;;;;;3.35;2.20;;;;;;;17.29;64.26;101198.75;5032538;28;20052;-43
2023/07/26 02:55:24;;;;;;;3.50;2.10;;;;;;;17.40;64.13;101204.78;5032449;28;20038;-45
2023/07/26 02:57:50;;;;;;;4.43;2.15;;;;;;;17.41;63.67;101203.91;5032966;28;20041;-44
2023/07/26 03:00:15;;;;;;;4.43;1.90;;;;;;;17.43;63.52;101204.78;5033348;28;20021;-42
2023/07/26 03:02:41;;;;;;;2.85;1.83;;;;;;;17.51;63.41;101202.94;5031372;28;20026;-43
2023/07/26 03:05:06;;;;;;;3.33;1.90;;;;;;;17.67;62.76;101206.34;5033194;28;20545;-46
2023/07/26 03:07:31;;;;;;;3.33;2.13;;;;;;;17.73;62.37;101211.53;5032699;28;20033;-51
2023/07/26 03:09:57;;;;;;;3.78;1.90;;;;;;;17.94;62.40;101207.78;5032767;28;20300;-43
2023/07/26 03:12:22;;;;;;;3.03;1.92;;;;;;;18.02;61.68;101211.22;5032205;28;20092;-44
2023/07/26 03:14:47;;;;;;;3.10;2.10;;;;;;;18.06;61.49;101205.00;5032184;28;20526;-42
2023/07/26 03:17:13;;;;;;;4.20;2.20;;;;;;;18.11;61.06;101209.31;5032613;28;20034;-44
2023/07/26 03:19:38;;;;;;;2.40;1.80;;;;;;;18.14;60.87;101208.41;5032326;28;20037;-43
2023/07/26 03:22:04;;;;;;;3.80;2.10;;;;;;;18.15;61.00;101204.91;5031830;28;20086;-45
2023/07/26 03:24:29;;;;;;;4.05;2.10;;;;;;;18.17;60.96;101211.91;5032100;28;20038;-43
2023/07/26 03:26:54;;;;;;;3.72;2.00;;;;;;;18.19;60.60;101207.47;5029998;28;20057;-46
2023/07/26 03:29:20;;;;;;;3.85;1.92;;;;;;;18.24;60.47;101199.50;5031095;28;20137;-43
2023/07/26 03:31:45;;;;;;;3.17;1.98;;;;;;;18.32;60.35;101202.91;5031356;28;20048;-43
2023/07/26 03:34:10;;;;;;;3.45;2.20;;;;;;;18.34;60.13;101203.78;5032471;28;20040;-43
2023/07/26 03:36:36;;;;;;;3.92;2.20;;;;;;;18.37;59.85;101209.00;5031827;28;20038;-44
2023/07/26 03:39:01;;;;;;;3.67;2.10;;;;;;;18.31;60.92;101206.44;5032352;28;20029;-48
2023/07/26 03:41:26;;;;;;;3.15;2.13;;;;;;;18.37;60.25;101210.75;5031883;28;20033;-44
2023/07/26 03:43:52;;;;;;;4.07;2.17;;;;;;;18.37;60.03;101206.34;5031722;28;20379;-44
2023/07/26 03:46:17;;;;;;;4.10;2.25;;;;;;;18.42;59.21;101203.69;5032275;28;20036;-44
2023/07/26 03:48:42;;;;;;;3.28;2.08;;;;;;;18.46;59.32;101200.09;5031408;28;20060;-46
2023/07/26 03:51:08;;;;;;;4.10;2.20;;;;;;;18.49;58.98;101193.00;5031513;28;20488;-47
2023/07/26 03:53:33;;;;;;;2.97;2.00;;;;;;;18.50;58.99;101192.09;5031345;28;20060;-44
2023/07/26 03:55:58;;;;;;;3.45;2.10;;;;;;;18.49;58.39;101190.34;5032024;28;20403;-46
2023/07/26 03:58:24;;;;;;;5.07;2.13;;;;;;;18.52;58.53;101192.09;5031999;28;20414;-43
2023/07/26 04:00:50;;;;;;;4.22;2.38;;;;;;;18.55;58.41;101192.94;5030914;28;20135;-44
2023/07/26 04:03:16;;;;;;;3.85;2.20;;;;;;;18.53;58.87;101191.19;5031205;28;20029;-45
2023/07/26 04:05:42;;;;;;;3.85;2.15;;;;;;;18.61;58.63;101184.94;5030723;28;20025;-46
2023/07/26 04:08:07;;;;;;;3.50;2.00;;;;;;;18.62;58.71;101180.53;5031359;28;20397;-46
2023/07/26 04:10:32;;;;;;;4.07;2.25;;;;;;;18.56;58.67;101170.91;5029116;28;20041;-44
2023/07/26 04:12:58;;;;;;;3.83;2.30;;;;;;;18.53;58.46;101173.59;5030455;28;20121;-45
2023/07/26 04:15:23;;;;;;;3.72;2.10;;;;;;;18.56;58.07;101170.91;5029857;28;20112;-43
2023/07/26 04:17:49;;;;;;;4.68;2.20;;;;;;;18.48;58.03;101174.56;5030986;28;20044;-44
2023/07/26 04:20:14;;;;;;;5.07;2.60;;;;;;;18.41;58.32;101179.03;5030936;28;20403;-42
2023/07/26 04:22:39;;;;;;;4.80;2.65;;;;;;;18.49;58.02;101186.84;5030639;28;20037;-47
2023/07/26 04:25:06;;;;;;;4.03;2.45;;;;;;;18.55;58.29;101187.66;5031209;28;20040;-44
2023/07/26 04:27:32;;;;;;;3.97;2.45;;;;;;;18.49;58.79;101184.19;5031074;28;20091;-48
2023/07/26 04:29:57;;;;;;;3.47;2.40;;;;;;;18.63;58.42;101188.44;5031225;28;20034;-45
2023/07/26 04:32:23;;;;;;;3.00;2.42;;;;;;;18.71;58.30;101188.31;5030459;28;20037;-43
2023/07/26 04:34:48;;;;;;;4.22;2.70;;;;;;;18.76;58.00;101183.84;5031057;28;20045;-45
2023/07/26 04:37:14;;;;;;;5.32;2.88;;;;;;;18.94;57.28;101180.03;5031075;28;20037;-45
2023/07/26 04:39:39;;;;;;;5.72;3.00;;;;;;;18.87;57.43;101181.03;5030454;28;20038;-44
2023/07/26 04:42:04;;;;;;;4.65;3.40;;;;;;;18.85;57.41;101183.69;5030445;28;20103;-45
2023/07/26 04:44:30;;;;;;;5.72;3.17;;;;;;;18.90;57.48;101181.88;5030814;28;20133;-45
2023/07/26 04:46:55;;;;;;;6.28;3.17;;;;;;;18.90;57.78;101187.16;5030718;28;20041;-44
2023/07/26 04:49:20;;;;;;;6.47;3.50;;;;;;;18.91;57.68;101188.88;5030517;28;20060;-44
2023/07/26 04:51:46;;;;;;;4.80;3.60;;;;;;;18.99;57.57;101191.41;5029850;28;20356;-45
2023/07/26 04:54:11;;;;;;;6.10;3.67;;;;;;;19.01;57.55;101189.63;5030353;28;20115;-46
2023/07/26 04:56:36;;;;;;;6.50;3.63;;;;;;;19.01;57.67;101192.25;5029635;28;20044;-44
2023/07/26 04:59:02;;;;;;;5.80;3.88;;;;;;;19.04;57.78;101193.06;5030173;28;20053;-43
2023/07/26 05:01:27;;;;;;;5.95;4.18;;;;;;;19.00;58.02;101198.44;5029608;28;20091;-43
2023/07/26 05:03:52;;;;;;;6.72;4.00;;;;;;;19.12;57.77;101189.44;5029451;28;20676;-43
2023/07/26 05:06:18;;;;;;;6.22;3.85;;;;;;;19.07;57.91;101188.63;5029007;28;20057;-46
2023/07/26 05:08:44;;;;;;;5.10;3.72;;;;;;;19.10;57.96;101178.88;5029951;28;20053;-44
2023/07/26 05:11:09;;;;;;;5.68;3.92;;;;;;;19.02;58.52;101179.03;5030145;28;20116;-47
2023/07/26 05:13:34;;;;;;;6.03;3.65;;;;;;;19.20;58.59;101190.19;5030097;28;20033;-43
2023/07/26 05:15:59;;;;;;;7.30;4.00;;;;;;;18.98;59.60;101185.22;5030107;28;20037;-44
2023/07/26 05:18:25;;;;;;;6.18;3.90;;;;;;;18.94;60.11;101194.13;5029969;28;20044;-44
2023/07/26 05:20:51;;;;;;;7.28;3.40;;;;;;;19.05;60.08;101194.81;5029051;28;20045;-46
2023/07/26 05:23:17;;;;;;;6.90;4.43;;;;;;;19.10;60.10;101205.31;5030224;28;20030;-46
2023/07/26 05:25:42;;;;;;;7.07;4.15;;;;;;;19.14;59.51;101212.31;5029837;28;20523;-44
2023/07/26 05:28:08;;;;;;;7.63;3.70;;;;;;;19.11;60.41;101222.91;5030260;28;20097;-46
2023/07/26 05:30:41;;;;;;;5.90;3.40;;;;;;;19.14;60.50;101224.63;5028853;28;20164;-44
2023/07/26 05:33:07;;;;;;;4.82;3.03;;;;;;;19.27;59.93;101224.38;5030375;28;20032;-43
2023/07/26 05:35:33;;;;;;;4.75;3.30;;;;;;;19.29;59.48;101229.66;5035930;28;20519;-44
2023/07/26 05:37:58;;;;;;;5.25;3.28;;;;;;;19.28;59.79;101225.25;5030597;28;20044;-43
2023/07/26 05:40:24;;;;;;;5.32;3.40;;;;;;;19.36;59.39;101228.66;5028600;28;20037;-44
2023/07/26 05:42:49;;;;;;;5.53;3.25;;;;;;;19.36;59.56;101239.25;5029349;28;20031;-47
2023/07/26 05:45:15;;;;;;;4.40;2.70;;;;;;;19.46;59.26;101237.38;5029535;28;20380;-44
2023/07/26 05:47:40;;;;;;;5.32;2.97;;;;;;;19.47;59.40;101242.59;5029910;28;20107;-44
2023/07/26 05:50:06;;;;;;;4.63;3.28;;;;;;;19.40;59.90;101251.50;5030146;28;20033;-51
2023/07/26 05:52:32;;;;;;;6.70;3.10;;;;;;;19.39;59.94;101250.63;5029320;28;20131;-52
2023/07/26 05:54:57;;;;;;;6.72;3.33;;;;;;;19.44;60.07;101253.22;5029808;28;20030;-42
2023/07/26 05:57:22;;;;;;;5.75;3.15;;;;;;;19.48;60.11;101254.94;5030273;28;20547;-44
2023/07/26 05:59:48;;;;;;;5.43;3.30;;;;;;;19.44;60.09;101266.44;5029445;28;20431;-42
2023/07/26 06:02:13;;;;;;;5.72;2.95;;;;;;;19.42;60.35;101278.78;5029875;28;20121;-42
2023/07/26 06:04:39;;;;;;;4.65;3.47;;;;;;;19.38;60.56;101280.63;5029189;28;20034;-48
2023/07/26 06:07:04;;;;;;;6.72;3.75;;;;;;;19.67;60.15;101281.94;5029733;28;20053;-45
2023/07/26 06:09:30;;;;;;;6.20;3.53;;;;;;;19.97;60.15;101280.50;5029561;28;20034;-43
2023/07/26 06:11:55;;;;;;;5.75;3.60;;;;;;;20.69;60.30;101287.88;5028204;28;20025;-47
2023/07/26 06:14:21;;;;;;;5.65;3.70;;;;;;;21.85;56.81;101279.78;5029254;28;20498;-43
2023/07/26 06:16:47;;;;;;;7.22;3.42;;;;;;;22.78;50.91;101278.97;5028982;28;20042;-43
2023/07/26 06:19:12;;;;;;;7.53;3.50;;;;;;;23.79;48.58;101269.44;5029472;28;20399;-47
2023/07/26 06:21:38;;;;;;;9.18;3.50;;;;;;;24.87;44.40;101276.09;5028229;28;20044;-43
2023/07/26 06:24:03;;;;;;;5.68;3.25;;;;;;;25.39;41.55;101266.88;5029157;28;20037;-48
2023/07/26 06:26:29;;;;;;;6.03;2.85;;;;;;;24.45;44.26;101279.50;5029212;28;20065;-47
2023/07/26 06:28:54;;;;;;;5.47;2.60;;;;;;;24.75;43.44;101281.91;5028678;28;20488;-47
2023/07/26 06:31:20;;;;;;;4.43;2.60;;;;;;;25.28;42.27;101271.81;5027367;28;20488;-46
2023/07/26 06:33:45;;;;;;;4.95;2.65;;;;;;;25.60;40.75;101273.16;5029049;28;20080;-45
2023/07/26 06:36:10;;;;;;;4.40;2.28;;;;;;;25.93;40.05;101278.84;5031609;28;20044;-48
2023/07/26 06:38:35;;;;;;;3.67;2.20;;;;;;;25.96;39.81;101279.59;5029499;28;20038;-46
2023/07/26 06:41:01;;;;;;;3.40;2.42;;;;;;;24.70;43.18;101284.78;5028448;28;20079;-46
2023/07/26 06:43:27;;;;;;;4.93;2.45;;;;;;;25.59;40.88;101274.09;5029040;28;20057;-46
2023/07/26 06:45:52;;;;;;;5.18;2.55;;;;;;;24.62;42.29;101278.84;5027244;28;20114;-48
2023/07/26 06:48:21;;;;;;;4.95;2.40;;;;;;;24.08;44.57;101281.75;5029060;28;20053;-45
2023/07/26 06:50:46;;;;;;;7.22;2.65;;;;;;;22.77;48.39;101287.84;5028088;28;20120;-46
2023/07/26 06:53:11;;;;;;;7.28;2.80;;;;;;;22.50;49.32;101290.41;5029057;28;20116;-45
2023/07/26 06:55:38;;;;;;;7.20;2.83;;;;;;;22.45;49.76;101294.06;5028506;28;20045;-49
2023/07/26 06:58:04;;;;;;;5.80;2.90;;;;;;;22.71;49.21;101288.00;5028901;28;20045;-47
2023/07/26 07:00:29;;;;;;;6.85;2.80;;;;;;;23.59;46.58;101288.78;5028289;28;20041;-47
2023/07/26 07:02:56;;;;;;;6.13;2.72;;;;;;;24.02;45.52;101290.81;5028476;28;20034;-45
2023/07/26 07:05:22;;;;;;;4.90;2.60;;;;;;;24.90;43.99;101290.22;5032362;28;20032;-46
2023/07/26 07:07:47;;;;;;;4.35;2.63;;;;;;;25.22;42.47;101290.72;5031764;28;20033;-45
2023/07/26 07:10:12;;;;;;;6.78;2.80;;;;;;;25.35;41.92;101294.63;5032488;28;20038;-44
2023/07/26 07:12:38;;;;;;;5.15;2.50;;;;;;;25.81;41.58;101290.94;5031549;28;20048;-47
2023/07/26 07:15:03;;;;;;;6.13;2.60;;;;;;;25.80;39.57;101292.72;5032502;28;20431;-46
2023/07/26 07:17:29;;;;;;;4.22;2.53;;;;;;;25.21;42.04;101295.19;5032151;28;20507;-44
2023/07/26 07:19:54;;;;;;;5.38;2.70;;;;;;;25.09;41.91;101300.16;5031663;28;20033;-47
2023/07/26 07:22:21;;;;;;;7.55;2.90;;;;;;;25.14;41.48;101303.50;5031480;28;20489;-48
2023/07/26 07:24:47;;;;;;;6.85;2.90;;;;;;;25.28;41.55;101296.69;5031586;28;20469;-48
2023/07/26 07:27:12;;;;;;;5.55;2.70;;;;;;;25.75;40.53;101301.88;5032104;28;20112;-46
2023/07/26 07:29:37;;;;;;;5.05;2.88;;;;;;;25.75;39.08;101305.41;5031743;28;20125;-44
2023/07/26 07:32:03;;;;;;;5.28;2.60;;;;;;;25.50;39.72;101303.78;5031543;28;20037;-45
2023/07/26 07:34:28;;;;;;;5.20;2.72;;;;;;;25.33;39.76;101308.03;5032376;28;20047;-45
2023/07/26 07:36:54;;;;;;;4.65;2.50;;;;;;;25.51;39.92;101311.75;5031400;28;20037;-44
2023/07/26 07:39:19;;;;;;;6.32;2.70;;;;;;;25.27;38.96;101310.09;5031790;28;20038;-47
2023/07/26 07:41:44;;;;;;;5.68;2.40;;;;;;;25.81;38.92;101310.50;5030967;28;20500;-44
2023/07/26 07:44:10;;;;;;;4.82;2.47;;;;;;;25.35;40.03;101311.53;5034900;28;20120;-46
2023/07/26 07:46:35;;;;;;;5.32;2.38;;;;;;;24.53;41.10;101321.84;5034738;28;20037;-45
2023/07/26 07:49:00;;;;;;;4.28;2.30;;;;;;;24.70;41.67;101323.91;5031886;28;20694;-47
2023/07/26 07:51:26;;;;;;;3.70;2.20;;;;;;;24.53;40.81;101322.72;5030905;28;20033;-45
2023/07/26 07:53:51;;;;;;;4.05;2.30;;;;;;;24.30;41.15;101321.81;5030727;28;22179;-46
2023/07/26 07:56:17;;;;;;;4.93;2.50;;;;;;;24.23;41.75;101318.50;5031287;28;20041;-45
2023/07/26 07:58:42;;;;;;;3.42;2.28;;;;;;;24.39;42.17;101324.16;5030557;28;20041;-46
2023/07/26 08:01:07;;;;;;;5.03;2.50;;;;;;;23.82;42.57;101320.81;5030869;28;20034;-45
2023/07/26 08:03:33;;;;;;;5.03;2.40;;;;;;;23.95;42.99;101320.38;5030956;28;20049;-44
2023/07/26 08:05:59;;;;;;;3.95;2.25;;;;;;;23.96;42.83;101320.34;5031038;28;20091;-45
2023/07/26 08:08:24;;;;;;;3.97;2.42;;;;;;;23.79;44.00;101326.22;5031118;28;20064;-45
2023/07/26 08:10:49;;;;;;;4.55;2.50;;;;;;;24.30;42.10;101330.69;5029980;28;20053;-46
2023/07/26 08:13:15;;;;;;;4.90;2.28;;;;;;;24.67;39.60;101319.53;5030797;28;20121;-47
2023/07/26 08:15:41;;;;;;;5.38;2.55;;;;;;;24.19;40.52;101322.22;5029931;28;20496;-49
2023/07/26 08:18:07;;;;;;;3.38;2.20;;;;;;;23.83;41.96;101327.00;5030938;28;20064;-46
2023/07/26 08:20:36;;;;;;;4.38;2.38;;;;;;;23.85;41.86;101318.03;5029616;28;20045;-50
2023/07/26 08:23:03;;;;;;;3.17;1.90;;;;;;;24.56;41.07;101329.75;5030773;28;20065;-45
2023/07/26 08:25:28;;;;;;;5.35;2.30;;;;;;;24.68;40.88;101337.28;5030823;28;20029;-46
2023/07/26 08:27:54;;;;;;;4.32;2.15;;;;;;;24.94;40.71;101334.53;5030298;28;20056;-45
2023/07/26 08:30:19;;;;;;;3.17;1.92;;;;;;;23.85;41.77;101341.13;5030303;28;20076;-44
2023/07/26 08:32:44;;;;;;;4.50;2.25;;;;;;;23.19;41.90;101337.06;5029487;28;20097;-46
2023/07/26 08:35:10;;;;;;;5.35;2.33;;;;;;;23.31;42.34;101341.09;5030487;28;20064;-47
2023/07/26 08:37:35;;;;;;;5.65;2.40;;;;;;;23.59;41.56;101339.34;5028816;28;20076;-44
2023/07/26 08:40:00;;;;;;;4.97;2.50;;;;;;;22.93;43.17;101340.50;5029296;28;20573;-45
2023/07/26 08:42:26;;;;;;;6.00;2.70;;;;;;;23.69;41.59;101339.91;5029883;28;20036;-50
2023/07/26 08:44:52;;;;;;;4.53;2.38;;;;;;;23.67;39.69;101336.41;5029885;28;21388;-45
2023/07/26 08:47:21;;;;;;;3.15;2.22;;;;;;;23.33;41.35;101339.28;5030511;28;20091;-49
2023/07/26 08:49:48;;;;;;;4.32;2.40;;;;;;;23.18;41.24;101345.94;5029764;28;20040;-44
2023/07/26 08:52:14;;;;;;;4.60;2.50;;;;;;;22.93;41.86;101337.84;5029729;28;20538;-44
2023/07/26 08:54:40;;;;;;;5.50;2.30;;;;;;;23.28;41.46;101342.09;5029630;28;20072;-43
2023/07/26 08:57:05;;;;;;;5.95;2.40;;;;;;;23.45;40.64;101339.75;5030128;28;20057;-45
2023/07/26 08:59:32;;;;;;;3.47;2.10;;;;;;;23.60;41.11;101342.88;5029909;28;20519;-47
2023/07/26 09:01:58;;;;;;;5.45;2.33;;;;;;;23.15;41.90;101342.53;5029055;28;20033;-48
2023/07/26 09:04:24;;;;;;;3.95;2.28;;;;;;;22.49;43.20;101338.25;5030048;28;20036;-42
2023/07/26 09:06:50;;;;;;;5.47;2.33;;;;;;;22.21;44.34;101348.75;5029741;28;20029;-44
2023/07/26 09:09:16;;;;;;;5.18;2.42;;;;;;;22.38;43.50;101345.66;5029912;28;20056;-43
2023/07/26 09:11:49;;;;;;;6.20;2.35;;;;;;;22.17;44.38;101348.00;5028421;28;20036;-45
2023/07/26 09:14:15;;;;;;;4.40;2.50;;;;;;;22.80;42.74;101344.47;5029997;28;20391;-43
2023/07/26 09:16:41;;;;;;;5.07;2.40;;;;;;;22.67;43.25;101338.59;5029560;28;20033;-47
2023/07/26 09:19:06;;;;;;;6.38;2.72;;;;;;;22.77;43.29;101346.34;5029866;28;20037;-44
2023/07/26 09:21:34;;;;;;;5.78;2.88;;;;;;;22.41;44.13;101342.91;5029476;28;20109;-45
2023/07/26 09:24:00;;;;;;;8.55;3.53;;;;;;;22.46;44.28;101344.53;5029194;28;20125;-46
2023/07/26 09:26:43;;;;;;;4.55;2.83;;;;;;;22.56;44.14;101345.16;5029173;28;20079;-47
2023/07/26 09:29:13;;;;;;;5.80;2.70;;;;;;;22.48;42.53;101342.72;5029888;28;20059;-44
2023/07/26 09:31:43;;;;;;;5.60;2.75;;;;;;;22.31;42.72;101347.63;5028818;28;20037;-43
2023/07/26 09:34:11;;;;;;;8.60;2.80;;;;;;;22.72;43.02;101338.50;5030130;28;20033;-46
2023/07/26 09:36:44;;;;;;;5.47;2.63;;;;;;;21.94;44.27;101346.81;5029241;28;20057;-48
2023/07/26 09:39:11;;;;;;;4.80;2.80;;;;;;;22.24;44.50;101346.03;5029764;28;20045;-43
2023/07/26 09:41:37;;;;;;;4.55;3.03;;;;;;;22.66;43.77;101351.94;5028878;28;20034;-46
2023/07/26 09:44:07;;;;;;;5.53;2.78;;;;;;;22.79;42.62;101347.16;5029609;28;20034;-45
2023/07/26 09:46:53;;;;;;;5.45;2.83;;;;;;;22.82;42.43;101344.41;5029591;28;20065;-44
2023/07/26 09:49:27;;;;;;;4.93;2.70;;;;;;;22.92;42.64;101349.44;5029532;28;20412;-52
2023/07/26 09:51:54;;;;;;;5.28;2.60;;;;;;;22.46;42.77;101351.63;5028540;28;20041;-47
2023/07/26 09:54:21;;;;;;;7.88;2.60;;;;;;;22.61;42.26;101353.84;5029410;28;20066;-44
2023/07/26 09:56:46;;;;;;;5.15;2.92;;;;;;;23.00;41.85;101351.81;5028780;28;20045;-47
2023/07/26 09:59:14;;;;;;;8.57;3.30;;;;;;;23.08;42.27;101354.25;5029324;28;20056;-44
2023/07/26 10:01:44;;;;;;;4.32;2.65;;;;;;;22.98;43.01;101349.25;5028214;28;20044;-46
2023/07/26 10:04:16;;;;;;;3.83;2.53;;;;;;;23.29;43.06;101356.28;5029846;28;20064;-44
2023/07/26 10:06:43;;;;;;;4.43;2.80;;;;;;;23.09;43.50;101348.03;5029145;28;20112;-45
2023/07/26 10:09:15;;;;;;;5.47;2.75;;;;;;;23.20;41.94;101354.75;5029475;28;20317;-44
2023/07/26 10:11:43;;;;;;;6.78;2.88;;;;;;;22.72;42.76;101359.75;5028818;28;20443;-45
2023/07/26 10:14:12;;;;;;;4.07;2.60;;;;;;;22.28;42.52;101363.63;5029371;28;20033;-46
2023/07/26 10:16:38;;;;;;;4.97;2.80;;;;;;;22.86;42.59;101357.59;5029132;28;20525;-45
2023/07/26 10:19:05;;;;;;;6.65;3.00;;;;;;;22.58;43.36;101353.94;5030006;28;20116;-47
2023/07/26 10:21:31;;;;;;;7.38;3.20;;;;;;;22.79;43.43;101353.34;5029509;28;20037;-45
2023/07/26 10:24:00;;;;;;;4.97;2.80;;;;;;;22.84;43.35;101359.41;5028662;28;20046;-46
2023/07/26 10:26:29;;;;;;;6.88;2.80;;;;;;;22.78;42.92;101364.03;5029476;28;20037;-46
2023/07/26 10:28:59;;;;;;;5.30;2.88;;;;;;;22.70;43.63;101368.66;5028654;28;20597;-49
2023/07/26 10:31:31;;;;;;;4.57;2.58;;;;;;;22.77;41.86;101365.81;5029047;28;20052;-44
2023/07/26 10:33:58;;;;;;;6.38;2.70;;;;;;;22.13;43.96;101366.72;5028647;28;20034;-46
2023/07/26 10:36:31;;;;;;;5.18;3.28;;;;;;;22.33;44.48;101368.81;5029180;28;20029;-46
2023/07/26 10:38:56;;;;;;;5.53;2.80;;;;;;;22.99;43.38;101356.28;5031675;28;20065;-46
2023/07/26 10:41:27;;;;;;;4.30;2.90;;;;;;;23.19;42.78;101368.09;5032277;28;20428;-48
2023/07/26 10:44:06;;;;;;;4.90;2.55;;;;;;;23.79;41.73;101360.84;5032511;28;20037;-44
2023/07/26 10:47:00;;;;;;;6.05;3.00;;;;;;;23.40;41.67;101370.09;5032954;28;20034;-44
2023/07/26 10:49:28;;;;;;;5.50;2.80;;;;;;;22.86;41.39;101367.34;5023306;28;20064;-43
2023/07/26 10:51:58;;;;;;;5.00;2.75;;;;;;;22.74;42.84;101371.22;5031486;28;20052;-46
2023/07/26 10:54:46;;;;;;;4.78;3.08;;;;;;;23.52;41.59;101369.75;5032698;28;20037;-44
2023/07/26 10:57:26;;;;;;;4.72;3.10;;;;;;;23.08;43.49;101375.53;5032463;28;20041;-46
2023/07/26 11:00:01;;;;;;;6.43;2.95;;;;;;;23.45;42.90;101370.81;5032328;28;20034;-45
2023/07/26 11:02:43;;;;;;;5.10;3.17;;;;;;;23.85;42.28;101373.06;5031779;28;20037;-48
2023/07/26 11:05:19;;;;;;;6.32;3.05;;;;;;;23.73;42.47;101366.38;5032248;28;20120;-46
2023/07/26 11:08:00;;;;;;;5.20;2.90;;;;;;;23.46;42.96;101375.22;5031767;28;20051;-45
2023/07/26 11:10:32;;;;;;;5.03;3.15;;;;;;;23.01;43.39;101378.38;5031993;28;20052;-46
2023/07/26 11:13:07;;;;;;;7.05;3.10;;;;;;;23.09;42.94;101364.00;5031516;28;20025;-47
2023/07/26 11:15:33;;;;;;;4.88;2.70;;;;;;;23.10;42.66;101371.06;5031790;28;20168;-51
2023/07/26 11:17:59;;;;;;;4.43;2.78;;;;;;;23.33;42.70;101374.75;5032253;28;20417;-48
2023/07/26 11:20:24;;;;;;;6.25;3.10;;;;;;;23.19;42.78;101384.94;5031419;28;20037;-47
2023/07/26 11:22:50;;;;;;;5.45;3.08;;;;;;;23.16;41.21;101369.09;5031667;28;20033;-46